Terminal Aerodrome Forecast
Issued by NWS Pendleton, OR

Home | Current Version | Previous Version | Text Only | Print | Product List | Glossary On
Versions: 1 2 3 4 5 6 7 8 9 10 11 12 13 14 15 16 17 18 19 20 21 22 23 24 25 26 27 28
520
FTUS46 KPDT 230539
TAFPDT
TAF
KPDT 230539Z 2306/2406 31006KT P6SM BKN050
     FM230800 21008KT P6SM BKN070
     FM231000 18006KT P6SM SKC
     FM231900 25013KT P6SM BKN250
      TEMPO 2322/2402 3SM -SN BKN020 BKN050=

USA.gov is the U.S. government's official web portal to all federal, state and local government web resources and services.